sensor_id;sensor_type;location;lat;lon;timestamp;temperature;humidity
15115;DHT22;7658;51.456;7.622;2022-07-22T00:01:31;16.40;99.90
15115;DHT22;7658;51.456;7.622;2022-07-22T00:03:57;16.40;99.90
15115;DHT22;7658;51.456;7.622;2022-07-22T00:06:23;16.40;99.90
15115;DHT22;7658;51.456;7.622;2022-07-22T00:08:48;16.40;99.90
15115;DHT22;7658;51.456;7.622;2022-07-22T00:11:14;16.40;99.90
15115;DHT22;7658;51.456;7.622;2022-07-22T00:13:40;16.40;99.90
15115;DHT22;7658;51.456;7.622;2022-07-22T00:16:06;16.40;99.90
15115;DHT22;7658;51.456;7.622;2022-07-22T00:18:32;16.40;99.90
15115;DHT22;7658;51.456;7.622;2022-07-22T00:20:58;16.40;99.90
15115;DHT22;7658;51.456;7.622;2022-07-22T00:23:23;16.40;99.90
15115;DHT22;7658;51.456;7.622;2022-07-22T00:25:49;16.40;99.90
15115;DHT22;7658;51.456;7.622;2022-07-22T00:28:15;16.30;99.90
15115;DHT22;7658;51.456;7.622;2022-07-22T00:30:41;16.30;99.90
15115;DHT22;7658;51.456;7.622;2022-07-22T00:33:06;16.30;99.90
15115;DHT22;7658;51.456;7.622;2022-07-22T00:35:32;16.30;99.90
15115;DHT22;7658;51.456;7.622;2022-07-22T00:37:58;16.30;99.90
15115;DHT22;7658;51.456;7.622;2022-07-22T00:40:23;16.30;99.90
15115;DHT22;7658;51.456;7.622;2022-07-22T00:42:49;16.30;99.90
15115;DHT22;7658;51.456;7.622;2022-07-22T00:45:16;16.30;99.90
15115;DHT22;7658;51.456;7.622;2022-07-22T00:47:41;16.30;99.90
15115;DHT22;7658;51.456;7.622;2022-07-22T00:50:07;16.30;99.90
15115;DHT22;7658;51.456;7.622;2022-07-22T00:52:34;16.30;99.90
15115;DHT22;7658;51.456;7.622;2022-07-22T00:55:00;16.30;99.90
15115;DHT22;7658;51.456;7.622;2022-07-22T00:57:27;16.20;99.90
15115;DHT22;7658;51.456;7.622;2022-07-22T00:59:53;16.20;99.90
15115;DHT22;7658;51.456;7.622;2022-07-22T01:02:19;16.20;99.90
15115;DHT22;7658;51.456;7.622;2022-07-22T01:04:44;16.20;99.90
15115;DHT22;7658;51.456;7.622;2022-07-22T01:07:10;16.20;99.90
15115;DHT22;7658;51.456;7.622;2022-07-22T01:09:37;16.20;99.90
15115;DHT22;7658;51.456;7.622;2022-07-22T01:12:03;16.20;99.90
15115;DHT22;7658;51.456;7.622;2022-07-22T01:14:29;16.20;99.90
15115;DHT22;7658;51.456;7.622;2022-07-22T01:16:55;16.20;99.90
15115;DHT22;7658;51.456;7.622;2022-07-22T01:19:21;16.20;99.90
15115;DHT22;7658;51.456;7.622;2022-07-22T01:21:47;16.20;99.90
15115;DHT22;7658;51.456;7.622;2022-07-22T01:24:12;16.20;99.90
15115;DHT22;7658;51.456;7.622;2022-07-22T01:26:38;16.20;99.90
15115;DHT22;7658;51.456;7.622;2022-07-22T01:29:04;16.20;99.90
15115;DHT22;7658;51.456;7.622;2022-07-22T01:31:30;16.10;99.90
15115;DHT22;7658;51.456;7.622;2022-07-22T01:33:56;16.20;99.90
15115;DHT22;7658;51.456;7.622;2022-07-22T01:36:22;16.10;99.90
15115;DHT22;7658;51.456;7.622;2022-07-22T01:38:48;16.10;99.90
15115;DHT22;7658;51.456;7.622;2022-07-22T01:41:14;16.10;99.90
15115;DHT22;7658;51.456;7.622;2022-07-22T01:43:39;16.10;99.90
15115;DHT22;7658;51.456;7.622;2022-07-22T01:46:05;16.00;99.90
15115;DHT22;7658;51.456;7.622;2022-07-22T01:48:32;16.00;99.90
15115;DHT22;7658;51.456;7.622;2022-07-22T01:50:59;16.00;99.90
15115;DHT22;7658;51.456;7.622;2022-07-22T01:53:25;16.00;99.90
15115;DHT22;7658;51.456;7.622;2022-07-22T01:55:51;15.90;99.90
15115;DHT22;7658;51.456;7.622;2022-07-22T01:58:18;15.90;99.90
15115;DHT22;7658;51.456;7.622;2022-07-22T02:00:44;15.90;99.90
15115;DHT22;7658;51.456;7.622;2022-07-22T02:03:10;15.90;99.90
15115;DHT22;7658;51.456;7.622;2022-07-22T02:05:36;15.90;99.90
15115;DHT22;7658;51.456;7.622;2022-07-22T02:08:08;15.90;99.90
15115;DHT22;7658;51.456;7.622;2022-07-22T02:10:35;15.90;99.90
15115;DHT22;7658;51.456;7.622;2022-07-22T02:13:01;15.90;99.90
15115;DHT22;7658;51.456;7.622;2022-07-22T02:15:28;15.90;99.90
15115;DHT22;7658;51.456;7.622;2022-07-22T02:17:54;15.90;99.90
15115;DHT22;7658;51.456;7.622;2022-07-22T02:20:21;15.90;99.90
15115;DHT22;7658;51.456;7.622;2022-07-22T02:22:47;15.90;99.90
15115;DHT22;7658;51.456;7.622;2022-07-22T02:25:13;15.90;99.90
15115;DHT22;7658;51.456;7.622;2022-07-22T02:27:40;15.90;99.90
15115;DHT22;7658;51.456;7.622;2022-07-22T02:30:07;15.90;99.90
15115;DHT22;7658;51.456;7.622;2022-07-22T02:32:33;15.90;99.90
15115;DHT22;7658;51.456;7.622;2022-07-22T02:34:59;15.90;99.90
15115;DHT22;7658;51.456;7.622;2022-07-22T02:37:25;15.90;99.90
15115;DHT22;7658;51.456;7.622;2022-07-22T02:39:51;15.90;99.90
15115;DHT22;7658;51.456;7.622;2022-07-22T02:42:16;15.90;99.90
15115;DHT22;7658;51.456;7.622;2022-07-22T02:44:42;15.90;99.90
15115;DHT22;7658;51.456;7.622;2022-07-22T02:47:08;15.90;99.90
15115;DHT22;7658;51.456;7.622;2022-07-22T02:49:34;15.90;99.90
15115;DHT22;7658;51.456;7.622;2022-07-22T02:52:00;15.90;99.90
15115;DHT22;7658;51.456;7.622;2022-07-22T02:54:26;15.90;99.90
15115;DHT22;7658;51.456;7.622;2022-07-22T02:56:51;15.90;99.90
15115;DHT22;7658;51.456;7.622;2022-07-22T02:59:17;15.90;99.90
15115;DHT22;7658;51.456;7.622;2022-07-22T03:01:44;15.80;99.90
15115;DHT22;7658;51.456;7.622;2022-07-22T03:04:09;15.80;99.90
15115;DHT22;7658;51.456;7.622;2022-07-22T03:06:35;15.90;99.90
15115;DHT22;7658;51.456;7.622;2022-07-22T03:09:01;15.90;99.90
15115;DHT22;7658;51.456;7.622;2022-07-22T03:11:27;15.90;99.90
15115;DHT22;7658;51.456;7.622;2022-07-22T03:13:52;15.90;99.90
15115;DHT22;7658;51.456;7.622;2022-07-22T03:16:18;16.00;99.90
15115;DHT22;7658;51.456;7.622;2022-07-22T03:18:44;16.00;99.90
15115;DHT22;7658;51.456;7.622;2022-07-22T03:21:10;16.00;99.90
15115;DHT22;7658;51.456;7.622;2022-07-22T03:23:35;16.00;99.90
15115;DHT22;7658;51.456;7.622;2022-07-22T03:26:01;16.00;99.90
15115;DHT22;7658;51.456;7.622;2022-07-22T03:28:27;15.90;99.90
15115;DHT22;7658;51.456;7.622;2022-07-22T03:30:53;15.90;99.90
15115;DHT22;7658;51.456;7.622;2022-07-22T03:33:19;15.90;99.90
15115;DHT22;7658;51.456;7.622;2022-07-22T03:35:45;15.80;99.90
15115;DHT22;7658;51.456;7.622;2022-07-22T03:38:10;15.80;99.90
15115;DHT22;7658;51.456;7.622;2022-07-22T03:40:36;15.80;99.90
15115;DHT22;7658;51.456;7.622;2022-07-22T03:43:02;15.80;99.90
15115;DHT22;7658;51.456;7.622;2022-07-22T03:45:28;15.90;99.90
15115;DHT22;7658;51.456;7.622;2022-07-22T03:47:53;15.90;99.90
15115;DHT22;7658;51.456;7.622;2022-07-22T03:50:20;15.80;99.90
15115;DHT22;7658;51.456;7.622;2022-07-22T03:52:46;15.80;99.90
15115;DHT22;7658;51.456;7.622;2022-07-22T03:55:12;15.70;99.90
15115;DHT22;7658;51.456;7.622;2022-07-22T03:57:38;15.70;99.90
15115;DHT22;7658;51.456;7.622;2022-07-22T04:00:04;15.70;99.90
15115;DHT22;7658;51.456;7.622;2022-07-22T04:02:31;15.70;99.90
15115;DHT22;7658;51.456;7.622;2022-07-22T04:04:57;15.70;99.90
15115;DHT22;7658;51.456;7.622;2022-07-22T04:07:23;15.70;99.90
15115;DHT22;7658;51.456;7.622;2022-07-22T04:09:49;15.70;99.90
15115;DHT22;7658;51.456;7.622;2022-07-22T04:12:14;15.80;99.90
15115;DHT22;7658;51.456;7.622;2022-07-22T04:14:40;15.80;99.90
15115;DHT22;7658;51.456;7.622;2022-07-22T04:17:06;15.80;99.90
15115;DHT22;7658;51.456;7.622;2022-07-22T04:19:32;15.80;99.90
15115;DHT22;7658;51.456;7.622;2022-07-22T04:21:57;15.80;99.90
15115;DHT22;7658;51.456;7.622;2022-07-22T04:24:23;15.80;99.90
15115;DHT22;7658;51.456;7.622;2022-07-22T04:26:49;15.80;99.90
15115;DHT22;7658;51.456;7.622;2022-07-22T04:29:14;15.80;99.90
15115;DHT22;7658;51.456;7.622;2022-07-22T04:31:40;15.80;99.90
15115;DHT22;7658;51.456;7.622;2022-07-22T04:34:06;15.80;99.90
15115;DHT22;7658;51.456;7.622;2022-07-22T04:36:32;15.80;99.90
15115;DHT22;7658;51.456;7.622;2022-07-22T04:38:57;15.80;99.90
15115;DHT22;7658;51.456;7.622;2022-07-22T04:41:23;15.80;99.90
15115;DHT22;7658;51.456;7.622;2022-07-22T04:43:49;15.80;99.90
15115;DHT22;7658;51.456;7.622;2022-07-22T04:46:15;15.90;99.90
15115;DHT22;7658;51.456;7.622;2022-07-22T04:48:40;15.90;99.90
15115;DHT22;7658;51.456;7.622;2022-07-22T04:51:06;15.90;99.90
15115;DHT22;7658;51.456;7.622;2022-07-22T04:53:32;15.90;99.90
15115;DHT22;7658;51.456;7.622;2022-07-22T04:55:58;15.90;99.90
15115;DHT22;7658;51.456;7.622;2022-07-22T04:58:24;15.90;99.90
15115;DHT22;7658;51.456;7.622;2022-07-22T05:00:49;15.90;99.90
15115;DHT22;7658;51.456;7.622;2022-07-22T05:03:15;15.90;99.90
15115;DHT22;7658;51.456;7.622;2022-07-22T05:05:41;16.00;99.90
15115;DHT22;7658;51.456;7.622;2022-07-22T05:08:07;16.00;99.90
15115;DHT22;7658;51.456;7.622;2022-07-22T05:10:32;16.00;99.90
15115;DHT22;7658;51.456;7.622;2022-07-22T05:12:59;16.00;99.90
15115;DHT22;7658;51.456;7.622;2022-07-22T05:15:25;16.00;99.90
15115;DHT22;7658;51.456;7.622;2022-07-22T05:17:50;16.00;99.90
15115;DHT22;7658;51.456;7.622;2022-07-22T05:20:16;16.10;99.90
15115;DHT22;7658;51.456;7.622;2022-07-22T05:22:42;16.10;99.90
15115;DHT22;7658;51.456;7.622;2022-07-22T05:25:08;16.00;99.90
15115;DHT22;7658;51.456;7.622;2022-07-22T05:27:35;16.10;99.90
15115;DHT22;7658;51.456;7.622;2022-07-22T05:30:00;16.00;99.90
15115;DHT22;7658;51.456;7.622;2022-07-22T05:32:26;16.00;99.90
15115;DHT22;7658;51.456;7.622;2022-07-22T05:34:52;16.00;99.90
15115;DHT22;7658;51.456;7.622;2022-07-22T05:37:18;16.10;99.90
15115;DHT22;7658;51.456;7.622;2022-07-22T05:39:44;16.20;99.90
15115;DHT22;7658;51.456;7.622;2022-07-22T05:42:10;16.20;99.90
15115;DHT22;7658;51.456;7.622;2022-07-22T05:44:35;16.10;99.90
15115;DHT22;7658;51.456;7.622;2022-07-22T05:47:01;16.10;99.90
15115;DHT22;7658;51.456;7.622;2022-07-22T05:49:27;16.10;99.90
15115;DHT22;7658;51.456;7.622;2022-07-22T05:51:53;16.20;99.90
15115;DHT22;7658;51.456;7.622;2022-07-22T05:54:19;16.20;99.90
15115;DHT22;7658;51.456;7.622;2022-07-22T05:56:45;16.20;99.90
15115;DHT22;7658;51.456;7.622;2022-07-22T05:59:11;16.20;99.90
15115;DHT22;7658;51.456;7.622;2022-07-22T06:01:37;16.20;99.90
15115;DHT22;7658;51.456;7.622;2022-07-22T06:04:02;16.20;99.90
15115;DHT22;7658;51.456;7.622;2022-07-22T06:06:28;16.30;99.90
15115;DHT22;7658;51.456;7.622;2022-07-22T06:08:54;16.30;99.90
15115;DHT22;7658;51.456;7.622;2022-07-22T06:11:20;16.40;99.90
15115;DHT22;7658;51.456;7.622;2022-07-22T06:13:47;16.40;99.90
15115;DHT22;7658;51.456;7.622;2022-07-22T06:16:13;16.40;99.90
15115;DHT22;7658;51.456;7.622;2022-07-22T06:18:39;16.40;99.90
15115;DHT22;7658;51.456;7.622;2022-07-22T06:21:06;16.40;99.90
15115;DHT22;7658;51.456;7.622;2022-07-22T06:23:33;16.40;99.90
15115;DHT22;7658;51.456;7.622;2022-07-22T06:25:59;16.40;99.90
15115;DHT22;7658;51.456;7.622;2022-07-22T06:28:25;16.40;99.90
15115;DHT22;7658;51.456;7.622;2022-07-22T06:30:51;16.40;99.90
15115;DHT22;7658;51.456;7.622;2022-07-22T06:33:17;16.40;99.90
15115;DHT22;7658;51.456;7.622;2022-07-22T06:35:42;16.40;99.90
15115;DHT22;7658;51.456;7.622;2022-07-22T06:38:09;16.40;99.90
15115;DHT22;7658;51.456;7.622;2022-07-22T06:40:34;16.30;99.90
15115;DHT22;7658;51.456;7.622;2022-07-22T06:43:00;16.20;99.90
15115;DHT22;7658;51.456;7.622;2022-07-22T06:45:26;16.20;99.90
15115;DHT22;7658;51.456;7.622;2022-07-22T06:47:52;16.20;99.90
15115;DHT22;7658;51.456;7.622;2022-07-22T06:50:18;16.20;99.90
15115;DHT22;7658;51.456;7.622;2022-07-22T06:52:44;16.30;99.90
15115;DHT22;7658;51.456;7.622;2022-07-22T06:55:10;16.20;99.90
15115;DHT22;7658;51.456;7.622;2022-07-22T06:57:35;16.20;99.90
15115;DHT22;7658;51.456;7.622;2022-07-22T07:00:04;16.30;99.90
15115;DHT22;7658;51.456;7.622;2022-07-22T07:02:32;16.30;99.90
15115;DHT22;7658;51.456;7.622;2022-07-22T07:04:57;16.20;99.90
15115;DHT22;7658;51.456;7.622;2022-07-22T07:07:23;16.30;99.90
15115;DHT22;7658;51.456;7.622;2022-07-22T07:09:49;16.20;99.90
15115;DHT22;7658;51.456;7.622;2022-07-22T07:12:14;16.10;99.90
15115;DHT22;7658;51.456;7.622;2022-07-22T07:14:40;16.10;99.90
15115;DHT22;7658;51.456;7.622;2022-07-22T07:17:08;16.10;99.90
15115;DHT22;7658;51.456;7.622;2022-07-22T07:19:34;16.00;99.90
15115;DHT22;7658;51.456;7.622;2022-07-22T07:21:59;16.00;99.90
15115;DHT22;7658;51.456;7.622;2022-07-22T07:24:27;16.10;99.90
15115;DHT22;7658;51.456;7.622;2022-07-22T07:26:52;16.10;99.90
15115;DHT22;7658;51.456;7.622;2022-07-22T07:29:18;16.00;99.90
15115;DHT22;7658;51.456;7.622;2022-07-22T07:31:44;16.10;99.90
15115;DHT22;7658;51.456;7.622;2022-07-22T07:34:10;16.10;99.90
15115;DHT22;7658;51.456;7.622;2022-07-22T07:36:35;16.10;99.90
15115;DHT22;7658;51.456;7.622;2022-07-22T07:39:01;16.10;99.90
15115;DHT22;7658;51.456;7.622;2022-07-22T07:41:27;16.10;99.90
15115;DHT22;7658;51.456;7.622;2022-07-22T07:43:53;16.10;99.90
15115;DHT22;7658;51.456;7.622;2022-07-22T07:46:19;16.20;99.90
15115;DHT22;7658;51.456;7.622;2022-07-22T07:48:44;16.30;99.90
15115;DHT22;7658;51.456;7.622;2022-07-22T07:51:10;16.30;99.90
15115;DHT22;7658;51.456;7.622;2022-07-22T07:53:36;16.20;99.90
15115;DHT22;7658;51.456;7.622;2022-07-22T07:56:02;16.30;99.90
15115;DHT22;7658;51.456;7.622;2022-07-22T07:58:28;16.40;99.90
15115;DHT22;7658;51.456;7.622;2022-07-22T08:00:53;16.50;99.90
15115;DHT22;7658;51.456;7.622;2022-07-22T08:03:19;16.50;99.90
15115;DHT22;7658;51.456;7.622;2022-07-22T08:05:45;16.60;99.90
15115;DHT22;7658;51.456;7.622;2022-07-22T08:08:11;16.60;99.90
15115;DHT22;7658;51.456;7.622;2022-07-22T08:10:36;16.80;99.90
15115;DHT22;7658;51.456;7.622;2022-07-22T08:13:03;16.80;99.90
15115;DHT22;7658;51.456;7.622;2022-07-22T08:15:30;16.90;99.90
15115;DHT22;7658;51.456;7.622;2022-07-22T08:17:56;16.90;99.90
15115;DHT22;7658;51.456;7.622;2022-07-22T08:20:24;17.00;99.90
15115;DHT22;7658;51.456;7.622;2022-07-22T08:22:51;17.00;99.90
15115;DHT22;7658;51.456;7.622;2022-07-22T08:25:17;17.20;99.90
15115;DHT22;7658;51.456;7.622;2022-07-22T08:27:43;17.30;99.90
15115;DHT22;7658;51.456;7.622;2022-07-22T08:30:09;17.30;99.90
15115;DHT22;7658;51.456;7.622;2022-07-22T08:32:35;17.40;99.90
15115;DHT22;7658;51.456;7.622;2022-07-22T08:35:01;17.40;99.90
15115;DHT22;7658;51.456;7.622;2022-07-22T08:37:27;17.50;99.90
15115;DHT22;7658;51.456;7.622;2022-07-22T08:39:53;17.40;99.90
15115;DHT22;7658;51.456;7.622;2022-07-22T08:42:21;17.40;99.90
15115;DHT22;7658;51.456;7.622;2022-07-22T08:44:47;17.50;99.90
15115;DHT22;7658;51.456;7.622;2022-07-22T08:47:13;17.50;99.90
15115;DHT22;7658;51.456;7.622;2022-07-22T08:49:39;17.50;99.90
15115;DHT22;7658;51.456;7.622;2022-07-22T08:52:05;17.60;99.90
15115;DHT22;7658;51.456;7.622;2022-07-22T08:54:31;17.60;99.90
15115;DHT22;7658;51.456;7.622;2022-07-22T08:56:56;17.60;99.90
15115;DHT22;7658;51.456;7.622;2022-07-22T08:59:22;17.70;99.90
15115;DHT22;7658;51.456;7.622;2022-07-22T09:02:02;17.60;99.90
15115;DHT22;7658;51.456;7.622;2022-07-22T09:04:28;17.70;99.90
15115;DHT22;7658;51.456;7.622;2022-07-22T09:06:54;17.70;99.90
15115;DHT22;7658;51.456;7.622;2022-07-22T09:09:32;17.70;99.90
15115;DHT22;7658;51.456;7.622;2022-07-22T09:12:08;17.80;99.90
15115;DHT22;7658;51.456;7.622;2022-07-22T09:14:48;17.80;99.90
15115;DHT22;7658;51.456;7.622;2022-07-22T09:17:34;17.80;99.90
15115;DHT22;7658;51.456;7.622;2022-07-22T09:20:15;17.80;99.90
15115;DHT22;7658;51.456;7.622;2022-07-22T09:22:46;17.80;99.90
15115;DHT22;7658;51.456;7.622;2022-07-22T09:27:56;17.80;99.90
15115;DHT22;7658;51.456;7.622;2022-07-22T09:30:45;17.70;99.90
15115;DHT22;7658;51.456;7.622;2022-07-22T09:33:12;17.60;99.90
15115;DHT22;7658;51.456;7.622;2022-07-22T09:35:38;17.50;99.90
15115;DHT22;7658;51.456;7.622;2022-07-22T09:38:10;17.40;99.90
15115;DHT22;7658;51.456;7.622;2022-07-22T09:40:44;17.40;99.90
15115;DHT22;7658;51.456;7.622;2022-07-22T09:43:15;17.50;99.90
15115;DHT22;7658;51.456;7.622;2022-07-22T09:45:47;17.60;99.90
15115;DHT22;7658;51.456;7.622;2022-07-22T09:48:13;17.60;99.90
15115;DHT22;7658;51.456;7.622;2022-07-22T09:50:39;17.60;99.90
15115;DHT22;7658;51.456;7.622;2022-07-22T09:53:05;17.50;99.90
15115;DHT22;7658;51.456;7.622;2022-07-22T09:55:31;17.50;99.90
15115;DHT22;7658;51.456;7.622;2022-07-22T09:57:59;17.40;99.90
15115;DHT22;7658;51.456;7.622;2022-07-22T10:00:26;17.30;99.90
15115;DHT22;7658;51.456;7.622;2022-07-22T10:02:57;17.20;99.90
15115;DHT22;7658;51.456;7.622;2022-07-22T10:05:35;17.30;99.90
15115;DHT22;7658;51.456;7.622;2022-07-22T10:08:03;17.40;99.90
15115;DHT22;7658;51.456;7.622;2022-07-22T10:10:31;17.40;99.90
15115;DHT22;7658;51.456;7.622;2022-07-22T10:12:58;17.30;99.90
15115;DHT22;7658;51.456;7.622;2022-07-22T10:15:26;17.40;99.90
15115;DHT22;7658;51.456;7.622;2022-07-22T10:17:55;17.40;99.90
15115;DHT22;7658;51.456;7.622;2022-07-22T10:20:24;17.50;99.90
15115;DHT22;7658;51.456;7.622;2022-07-22T10:23:02;17.60;99.90
15115;DHT22;7658;51.456;7.622;2022-07-22T10:25:47;17.70;99.90
15115;DHT22;7658;51.456;7.622;2022-07-22T10:30:50;18.00;99.90
15115;DHT22;7658;51.456;7.622;2022-07-22T10:33:29;18.10;99.90
15115;DHT22;7658;51.456;7.622;2022-07-22T10:36:00;18.00;99.90
15115;DHT22;7658;51.456;7.622;2022-07-22T10:38:27;18.10;99.90
15115;DHT22;7658;51.456;7.622;2022-07-22T10:41:30;18.10;99.90
15115;DHT22;7658;51.456;7.622;2022-07-22T10:43:58;18.00;99.90
15115;DHT22;7658;51.456;7.622;2022-07-22T10:46:48;18.00;99.90
15115;DHT22;7658;51.456;7.622;2022-07-22T10:49:16;18.00;99.90
15115;DHT22;7658;51.456;7.622;2022-07-22T10:52:08;18.00;99.90
15115;DHT22;7658;51.456;7.622;2022-07-22T10:57:38;18.30;99.90
15115;DHT22;7658;51.456;7.622;2022-07-22T11:00:05;18.40;99.90
15115;DHT22;7658;51.456;7.622;2022-07-22T11:02:31;18.30;99.90
15115;DHT22;7658;51.456;7.622;2022-07-22T11:04:58;18.30;99.90
15115;DHT22;7658;51.456;7.622;2022-07-22T11:07:24;18.30;99.90
15115;DHT22;7658;51.456;7.622;2022-07-22T11:09:50;18.40;99.90
15115;DHT22;7658;51.456;7.622;2022-07-22T11:12:15;18.50;99.90
15115;DHT22;7658;51.456;7.622;2022-07-22T11:14:41;18.50;99.90
15115;DHT22;7658;51.456;7.622;2022-07-22T11:17:11;18.50;99.90
15115;DHT22;7658;51.456;7.622;2022-07-22T11:19:39;18.60;99.90
15115;DHT22;7658;51.456;7.622;2022-07-22T11:22:10;18.70;99.90
15115;DHT22;7658;51.456;7.622;2022-07-22T11:24:38;18.80;99.90
15115;DHT22;7658;51.456;7.622;2022-07-22T11:27:08;18.70;99.90
15115;DHT22;7658;51.456;7.622;2022-07-22T11:29:37;18.70;99.90
15115;DHT22;7658;51.456;7.622;2022-07-22T11:32:07;18.80;99.90
15115;DHT22;7658;51.456;7.622;2022-07-22T11:34:39;18.90;99.90
15115;DHT22;7658;51.456;7.622;2022-07-22T11:37:08;18.90;99.90
15115;DHT22;7658;51.456;7.622;2022-07-22T11:39:34;19.00;99.90
15115;DHT22;7658;51.456;7.622;2022-07-22T11:42:00;19.00;99.90
15115;DHT22;7658;51.456;7.622;2022-07-22T11:44:29;19.00;99.90
15115;DHT22;7658;51.456;7.622;2022-07-22T11:46:55;19.00;99.90
15115;DHT22;7658;51.456;7.622;2022-07-22T11:49:26;19.00;99.90
15115;DHT22;7658;51.456;7.622;2022-07-22T11:51:52;19.00;99.90
15115;DHT22;7658;51.456;7.622;2022-07-22T11:54:18;19.00;99.90
15115;DHT22;7658;51.456;7.622;2022-07-22T11:56:45;19.10;99.90
15115;DHT22;7658;51.456;7.622;2022-07-22T11:59:17;19.20;99.90
15115;DHT22;7658;51.456;7.622;2022-07-22T12:01:44;19.30;99.90
15115;DHT22;7658;51.456;7.622;2022-07-22T12:04:16;19.30;99.90
15115;DHT22;7658;51.456;7.622;2022-07-22T12:06:43;19.40;99.90
15115;DHT22;7658;51.456;7.622;2022-07-22T12:11:43;19.40;99.90
15115;DHT22;7658;51.456;7.622;2022-07-22T12:16:40;19.50;99.90
15115;DHT22;7658;51.456;7.622;2022-07-22T12:19:11;19.40;99.90
15115;DHT22;7658;51.456;7.622;2022-07-22T12:21:59;19.40;99.90
15115;DHT22;7658;51.456;7.622;2022-07-22T12:24:40;19.50;99.90
15115;DHT22;7658;51.456;7.622;2022-07-22T12:27:08;19.50;99.90
15115;DHT22;7658;51.456;7.622;2022-07-22T12:32:07;19.50;99.90
15115;DHT22;7658;51.456;7.622;2022-07-22T12:42:29;19.70;99.90
15115;DHT22;7658;51.456;7.622;2022-07-22T12:45:05;19.80;99.90
15115;DHT22;7658;51.456;7.622;2022-07-22T12:48:04;19.90;99.90
15115;DHT22;7658;51.456;7.622;2022-07-22T12:50:36;20.20;99.90
15115;DHT22;7658;51.456;7.622;2022-07-22T12:53:04;20.40;99.90
15115;DHT22;7658;51.456;7.622;2022-07-22T12:55:35;20.50;99.90
15115;DHT22;7658;51.456;7.622;2022-07-22T12:58:04;20.70;99.90
15115;DHT22;7658;51.456;7.622;2022-07-22T13:00:32;20.80;99.90
15115;DHT22;7658;51.456;7.622;2022-07-22T13:02:58;20.90;99.90
15115;DHT22;7658;51.456;7.622;2022-07-22T13:05:24;21.00;99.90
15115;DHT22;7658;51.456;7.622;2022-07-22T13:07:51;21.00;99.90
15115;DHT22;7658;51.456;7.622;2022-07-22T13:10:19;21.00;99.90
15115;DHT22;7658;51.456;7.622;2022-07-22T13:12:45;21.00;99.90
15115;DHT22;7658;51.456;7.622;2022-07-22T13:15:11;21.00;99.90
15115;DHT22;7658;51.456;7.622;2022-07-22T13:17:39;20.90;99.90
15115;DHT22;7658;51.456;7.622;2022-07-22T13:20:05;21.00;99.90
15115;DHT22;7658;51.456;7.622;2022-07-22T13:22:31;21.00;99.90
15115;DHT22;7658;51.456;7.622;2022-07-22T13:24:57;21.10;99.90
15115;DHT22;7658;51.456;7.622;2022-07-22T13:27:23;21.10;99.90
15115;DHT22;7658;51.456;7.622;2022-07-22T13:29:49;21.20;99.90
15115;DHT22;7658;51.456;7.622;2022-07-22T13:32:14;21.40;99.90
15115;DHT22;7658;51.456;7.622;2022-07-22T13:34:40;21.50;99.90
15115;DHT22;7658;51.456;7.622;2022-07-22T13:37:06;21.60;99.90
15115;DHT22;7658;51.456;7.622;2022-07-22T13:39:32;22.00;99.90
15115;DHT22;7658;51.456;7.622;2022-07-22T13:41:58;22.40;99.90
15115;DHT22;7658;51.456;7.622;2022-07-22T13:44:24;22.70;99.90
15115;DHT22;7658;51.456;7.622;2022-07-22T13:46:50;22.70;99.90
15115;DHT22;7658;51.456;7.622;2022-07-22T13:49:16;22.80;99.90
15115;DHT22;7658;51.456;7.622;2022-07-22T13:51:41;22.90;99.90
15115;DHT22;7658;51.456;7.622;2022-07-22T13:54:07;23.00;99.90
15115;DHT22;7658;51.456;7.622;2022-07-22T13:56:33;22.90;99.90
15115;DHT22;7658;51.456;7.622;2022-07-22T13:59:00;22.80;99.90
15115;DHT22;7658;51.456;7.622;2022-07-22T14:01:27;22.80;99.90
15115;DHT22;7658;51.456;7.622;2022-07-22T14:03:52;22.60;99.90
15115;DHT22;7658;51.456;7.622;2022-07-22T14:06:18;22.50;99.90
15115;DHT22;7658;51.456;7.622;2022-07-22T14:08:44;22.50;99.90
15115;DHT22;7658;51.456;7.622;2022-07-22T14:11:10;22.50;99.90
15115;DHT22;7658;51.456;7.622;2022-07-22T14:13:36;22.40;99.90
15115;DHT22;7658;51.456;7.622;2022-07-22T14:16:01;22.50;99.90
15115;DHT22;7658;51.456;7.622;2022-07-22T14:18:47;22.60;99.90
15115;DHT22;7658;51.456;7.622;2022-07-22T14:21:13;23.00;99.90
15115;DHT22;7658;51.456;7.622;2022-07-22T14:23:39;23.30;99.90
15115;DHT22;7658;51.456;7.622;2022-07-22T14:26:05;24.10;99.90
15115;DHT22;7658;51.456;7.622;2022-07-22T14:28:31;24.60;99.90
15115;DHT22;7658;51.456;7.622;2022-07-22T14:30:57;25.00;99.90
15115;DHT22;7658;51.456;7.622;2022-07-22T14:33:23;24.60;99.90
15115;DHT22;7658;51.456;7.622;2022-07-22T14:35:49;24.50;99.90
15115;DHT22;7658;51.456;7.622;2022-07-22T14:38:14;24.30;99.90
15115;DHT22;7658;51.456;7.622;2022-07-22T14:40:40;24.20;99.90
15115;DHT22;7658;51.456;7.622;2022-07-22T14:43:06;24.00;99.90
15115;DHT22;7658;51.456;7.622;2022-07-22T14:45:32;23.90;99.90
15115;DHT22;7658;51.456;7.622;2022-07-22T14:47:57;23.90;99.90
15115;DHT22;7658;51.456;7.622;2022-07-22T14:50:23;23.60;99.90
15115;DHT22;7658;51.456;7.622;2022-07-22T14:52:49;23.40;99.90
15115;DHT22;7658;51.456;7.622;2022-07-22T14:55:15;23.20;99.90
15115;DHT22;7658;51.456;7.622;2022-07-22T14:57:41;23.00;99.90
15115;DHT22;7658;51.456;7.622;2022-07-22T15:00:07;23.00;99.90
15115;DHT22;7658;51.456;7.622;2022-07-22T15:02:34;23.20;99.90
15115;DHT22;7658;51.456;7.622;2022-07-22T15:04:59;23.40;99.90
15115;DHT22;7658;51.456;7.622;2022-07-22T15:07:25;23.70;99.90
15115;DHT22;7658;51.456;7.622;2022-07-22T15:09:51;23.70;99.90
15115;DHT22;7658;51.456;7.622;2022-07-22T15:12:16;23.70;99.90
15115;DHT22;7658;51.456;7.622;2022-07-22T15:14:42;23.70;99.90
15115;DHT22;7658;51.456;7.622;2022-07-22T15:17:08;23.90;99.90
15115;DHT22;7658;51.456;7.622;2022-07-22T15:19:34;24.00;99.90
15115;DHT22;7658;51.456;7.622;2022-07-22T15:22:00;24.10;99.90
15115;DHT22;7658;51.456;7.622;2022-07-22T15:24:26;24.20;99.90
15115;DHT22;7658;51.456;7.622;2022-07-22T15:26:51;23.90;99.90
15115;DHT22;7658;51.456;7.622;2022-07-22T15:29:17;23.90;99.90
15115;DHT22;7658;51.456;7.622;2022-07-22T15:31:43;23.90;99.90
15115;DHT22;7658;51.456;7.622;2022-07-22T15:34:09;23.90;99.90
15115;DHT22;7658;51.456;7.622;2022-07-22T15:36:35;23.60;99.90
15115;DHT22;7658;51.456;7.622;2022-07-22T15:39:01;23.70;99.90
15115;DHT22;7658;51.456;7.622;2022-07-22T15:41:27;23.80;99.90
15115;DHT22;7658;51.456;7.622;2022-07-22T15:43:54;23.80;99.90
15115;DHT22;7658;51.456;7.622;2022-07-22T15:46:20;23.80;99.90
15115;DHT22;7658;51.456;7.622;2022-07-22T15:48:46;23.90;99.90
15115;DHT22;7658;51.456;7.622;2022-07-22T15:51:11;23.90;99.90
15115;DHT22;7658;51.456;7.622;2022-07-22T15:53:38;23.70;99.90
15115;DHT22;7658;51.456;7.622;2022-07-22T15:56:04;23.60;99.90
15115;DHT22;7658;51.456;7.622;2022-07-22T15:58:30;23.60;99.90
15115;DHT22;7658;51.456;7.622;2022-07-22T16:01:14;23.40;99.90
15115;DHT22;7658;51.456;7.622;2022-07-22T16:03:40;23.30;99.90
15115;DHT22;7658;51.456;7.622;2022-07-22T16:06:06;23.30;99.90
15115;DHT22;7658;51.456;7.622;2022-07-22T16:08:31;23.10;99.90